Time,TemperatureF,DewpointF,PressureIn,WindDirection,WindDirectionDegrees,WindSpeedMPH,WindSpeedGustMPH,Humidity,HourlyPrecipIn,Conditions,Clouds,dailyrainin,SoftwareType,DateUTC
2013-01-30 00:05:00,57.3,54.1,29.17,East,86,4.0,7.0,89,0.00,,-RA,0.00,VWS V14.01,2013-01-30 05:05:00,
2013-01-30 00:12:00,57.0,53.8,29.17,South,184,2.0,7.0,89,0.00,,-RA,0.00,VWS V14.01,2013-01-30 05:12:00,
2013-01-30 00:15:00,57.2,54.3,29.16,SSE,152,1.0,6.0,90,0.00,,-RA,0.00,VWS V14.01,2013-01-30 05:15:00,
2013-01-30 00:20:00,57.3,54.4,29.16,SE,133,3.0,5.0,90,0.00,,-RA,0.00,VWS V14.01,2013-01-30 05:20:00,
2013-01-30 00:25:00,57.6,54.7,29.16,SE,140,0.0,6.0,90,0.00,,-RA,0.00,VWS V14.01,2013-01-30 05:25:00,
2013-01-30 00:30:00,57.6,54.7,29.14,SSE,157,2.0,11.0,90,0.00,,-RA,0.00,VWS V14.01,2013-01-30 05:30:00,
2013-01-30 00:35:00,57.5,54.3,29.14,SE,138,1.0,6.0,89,0.02,,-RA,0.02,VWS V14.01,2013-01-30 05:35:00,
2013-01-30 00:40:00,57.2,54.3,29.14,West,270,12.0,12.0,90,0.02,, +RA,0.02,VWS V14.01,2013-01-30 05:40:00,
2013-01-30 00:45:00,57.2,54.3,29.17,SSE,167,17.0,21.0,90,0.02,, +RA,0.02,VWS V14.01,2013-01-30 05:45:00,
2013-01-30 00:50:00,54.8,51.3,29.17,NNW,339,21.0,34.0,88,0.06,, +RA,0.06,VWS V14.01,2013-01-30 05:50:00,
2013-01-30 00:55:00,53.8,50.9,29.17,NW,326,14.0,30.0,90,0.17,, +RA,0.17,VWS V14.01,2013-01-30 05:55:00,
2013-01-30 01:00:00,53.5,50.9,29.19,NNW,328,19.0,24.0,91,0.20,, +RA,0.20,VWS V14.01,2013-01-30 06:00:00,
2013-01-30 01:10:00,53.3,50.7,29.19,NW,326,13.0,21.0,91,0.22,, +RA,0.22,VWS V14.01,2013-01-30 06:10:00,
2013-01-30 01:15:00,53.3,50.7,29.20,NW,323,10.0,20.0,91,0.24,, +RA,0.24,VWS V14.01,2013-01-30 06:15:00,
2013-01-30 01:20:00,53.3,50.7,29.20,WNW,299,6.0,19.0,91,0.25,, +RA,0.25,VWS V14.01,2013-01-30 06:20:00,
2013-01-30 01:25:00,53.3,51.0,29.20,NW,322,18.0,19.0,92,0.26,, +RA,0.26,VWS V14.01,2013-01-30 06:25:00,
2013-01-30 01:30:00,53.3,51.0,29.20,NNW,332,17.0,21.0,92,0.27,, +RA,0.27,VWS V14.01,2013-01-30 06:30:00,
2013-01-30 01:35:00,53.3,51.0,29.20,NW,320,10.0,19.0,92,0.28,, +RA,0.28,VWS V14.01,2013-01-30 06:35:00,
2013-01-30 01:40:00,53.2,50.9,29.20,West,270,10.0,14.0,92,0.27,,RA,0.29,VWS V14.01,2013-01-30 06:40:00,
2013-01-30 01:45:00,53.2,50.9,29.22,WNW,289,6.0,12.0,92,0.28,,RA,0.30,VWS V14.01,2013-01-30 06:45:00,
2013-01-30 01:50:00,53.2,50.9,29.22,NNW,328,13.0,15.0,92,0.29,,RA,0.31,VWS V14.01,2013-01-30 06:50:00,
2013-01-30 01:55:00,53.2,50.9,29.22,NW,326,7.0,13.0,92,0.26,,RA,0.32,VWS V14.01,2013-01-30 06:55:00,
2013-01-30 02:01:00,53.1,50.8,29.25,WSW,258,7.0,12.0,92,0.16,,RA,0.33,VWS V14.01,2013-01-30 07:01:00,
2013-01-30 02:10:00,52.9,50.9,29.25,West,264,6.0,12.0,93,0.15,,RA,0.35,VWS V14.01,2013-01-30 07:10:00,
2013-01-30 02:15:00,52.9,50.9,29.23,NNW,339,8.0,8.0,93,0.14,,RA,0.36,VWS V14.01,2013-01-30 07:15:00,
2013-01-30 02:20:00,52.8,50.8,29.23,NNW,347,11.0,11.0,93,0.13,,RA,0.37,VWS V14.01,2013-01-30 07:20:00,
2013-01-30 02:25:00,52.8,50.8,29.23,NW,322,3.0,12.0,93,0.12,,RA,0.37,VWS V14.01,2013-01-30 07:25:00,
2013-01-30 02:30:00,52.8,51.1,29.21,NNW,336,6.0,9.0,94,0.11,,RA,0.37,VWS V14.01,2013-01-30 07:30:00,
2013-01-30 02:40:00,52.8,51.1,29.21,NNW,329,0.0,6.0,94,0.10,,RA,0.38,VWS V14.01,2013-01-30 07:40:00,
2013-01-30 02:45:00,52.6,50.9,29.19,NNW,329,1.0,2.0,94,0.09,,RA,0.38,VWS V14.01,2013-01-30 07:45:00,
2013-01-30 02:50:00,52.5,50.8,29.19,NNW,329,0.0,2.0,94,0.08,,RA,0.38,VWS V14.01,2013-01-30 07:50:00,
2013-01-30 03:00:00,52.0,50.3,29.18,NNW,329,3.0,3.0,94,0.07,,RA,0.39,VWS V14.01,2013-01-30 08:00:00,
2013-01-30 03:05:00,52.0,50.3,29.18,NNW,329,0.0,3.0,94,0.06,,RA,0.39,VWS V14.01,2013-01-30 08:05:00,
2013-01-30 03:15:00,51.9,50.2,29.20,NNW,329,0.0,0.0,94,0.05,,RA,0.40,VWS V14.01,2013-01-30 08:15:00,
2013-01-30 03:25:00,51.6,49.9,29.20,NNW,329,0.0,0.0,94,0.04,,RA,0.41,VWS V14.01,2013-01-30 08:25:00,
2013-01-30 03:35:00,51.4,49.7,29.19,NNW,329,2.0,2.0,94,0.05,,RA,0.42,VWS V14.01,2013-01-30 08:35:00,
2013-01-30 03:40:00,51.1,49.4,29.19,NNW,329,0.0,2.0,94,0.05,,-RA,0.43,VWS V14.01,2013-01-30 08:40:00,
2013-01-30 03:45:00,51.0,49.3,29.21,NNW,328,0.0,3.0,94,0.06,,-RA,0.44,VWS V14.01,2013-01-30 08:45:00,
2013-01-30 03:55:00,51.1,49.4,29.21,NNW,328,0.0,0.0,94,0.07,,-RA,0.45,VWS V14.01,2013-01-30 08:55:00,
2013-01-30 04:05:00,51.3,49.6,29.20,NNW,328,1.0,2.0,94,0.07,,-RA,0.46,VWS V14.01,2013-01-30 09:05:00,
2013-01-30 04:10:00,51.0,49.3,29.20,NNW,328,3.0,5.0,94,0.08,,-RA,0.47,VWS V14.01,2013-01-30 09:10:00,
2013-01-30 04:15:00,51.3,49.9,29.21,SSW,210,6.0,10.0,95,0.08,,-RA,0.47,VWS V14.01,2013-01-30 09:15:00,
2013-01-30 04:25:00,51.1,49.7,29.21,SSW,205,1.0,8.0,95,0.07,,-RA,0.48,VWS V14.01,2013-01-30 09:25:00,
2013-01-30 04:30:00,51.0,49.6,29.22,SSW,198,2.0,6.0,95,0.08,,-RA,0.49,VWS V14.01,2013-01-30 09:30:00,
2013-01-30 04:35:00,51.0,49.6,29.22,SSW,196,2.0,3.0,95,0.08,,-RA,0.50,VWS V14.01,2013-01-30 09:35:00,
2013-01-30 04:45:00,50.7,49.6,29.21,South,191,0.0,5.0,96,0.08,,-RA,0.51,VWS V14.01,2013-01-30 09:45:00,
2013-01-30 04:50:00,50.5,49.7,29.21,South,189,2.0,2.0,97,0.08,,-RA,0.52,VWS V14.01,2013-01-30 09:50:00,
2013-01-30 05:00:00,50.5,49.7,29.19,SSE,160,2.0,3.0,97,0.08,,-RA,0.53,VWS V14.01,2013-01-30 10:00:00,
2013-01-30 05:05:00,50.4,49.6,29.19,SSE,155,2.0,3.0,97,0.08,,-RA,0.54,VWS V14.01,2013-01-30 10:05:00,
2013-01-30 05:10:00,49.9,49.1,29.19,SE,126,3.0,5.0,97,0.08,,-RA,0.54,VWS V14.01,2013-01-30 10:10:00,
2013-01-30 05:15:00,49.8,49.0,29.17,SE,133,4.0,6.0,97,0.07,,-RA,0.54,VWS V14.01,2013-01-30 10:15:00,
2013-01-30 05:20:00,49.6,48.8,29.17,SE,136,1.0,6.0,97,0.07,,-RA,0.54,VWS V14.01,2013-01-30 10:20:00,
2013-01-30 05:25:00,49.6,49.1,29.17,SE,145,2.0,6.0,98,0.07,,-RA,0.54,VWS V14.01,2013-01-30 10:25:00,
2013-01-30 05:30:00,49.5,49.0,29.16,SSE,150,0.0,6.0,98,0.06,,-RA,0.54,VWS V14.01,2013-01-30 10:30:00,
2013-01-30 05:35:00,49.5,49.0,29.16,SE,127,1.0,5.0,98,0.05,,-RA,0.54,VWS V14.01,2013-01-30 10:35:00,
2013-01-30 05:40:00,49.4,48.9,29.16,SE,140,3.0,7.0,98,0.04,,-RA,0.54,VWS V14.01,2013-01-30 10:40:00,
2013-01-30 05:50:00,49.6,49.3,29.16,SE,145,2.0,9.0,99,0.03,,-RA,0.54,VWS V14.01,2013-01-30 10:50:00,
2013-01-30 05:55:00,49.8,49.5,29.16,SE,131,5.0,7.0,99,0.02,,-RA,0.54,VWS V14.01,2013-01-30 10:55:00,
2013-01-30 06:05:00,49.4,49.4,29.15,SE,136,7.0,7.0,100,0.01,,-RA,0.54,VWS V14.01,2013-01-30 11:05:00,
2013-01-30 06:10:00,49.1,49.1,29.15,ESE,116,2.0,7.0,100,0.00,,-RA,0.54,VWS V14.01,2013-01-30 11:10:00,
2013-01-30 06:15:00,48.9,48.9,29.15,SSE,161,2.0,10.0,100,0.00,,-RA,0.54,VWS V14.01,2013-01-30 11:15:00,
2013-01-30 06:20:00,49.2,49.2,29.15,SSE,152,4.0,7.0,100,0.00,,-RA,0.54,VWS V14.01,2013-01-30 11:20:00,
2013-01-30 06:25:00,49.5,49.5,29.15,SSE,150,2.0,11.0,100,0.00,,-RA,0.54,VWS V14.01,2013-01-30 11:25:00,
2013-01-30 06:30:00,49.6,49.6,29.15,SSE,150,3.0,10.0,100,0.00,,-RA,0.54,VWS V14.01,2013-01-30 11:30:00,
2013-01-30 06:35:00,49.5,49.5,29.15,SE,145,7.0,11.0,100,0.00,,-RA,0.54,VWS V14.01,2013-01-30 11:35:00,
2013-01-30 06:45:00,49.1,49.1,29.12,ESE,116,3.0,7.0,100,0.00,,,0.54,VWS V14.01,2013-01-30 11:45:00,
2013-01-30 06:50:00,49.1,49.1,29.12,SSE,152,5.0,7.0,100,0.00,,,0.54,VWS V14.01,2013-01-30 11:50:00,
2013-01-30 06:55:00,48.9,48.9,29.12,SE,144,6.0,6.0,100,0.00,,,0.54,VWS V14.01,2013-01-30 11:55:00,
2013-01-30 07:00:00,48.9,48.9,29.12,ESE,112,6.0,8.0,100,0.00,,,0.54,VWS V14.01,2013-01-30 12:00:00,
2013-01-30 07:06:00,49.1,49.1,29.12,SSE,157,5.0,8.0,100,0.00,,,0.54,VWS V14.01,2013-01-30 12:06:00,
2013-01-30 07:15:00,49.2,49.2,29.15,SSE,157,4.0,7.0,100,0.00,,,0.54,VWS V14.01,2013-01-30 12:15:00,
2013-01-30 07:20:00,49.2,49.2,29.15,South,174,5.0,6.0,100,0.00,,,0.54,VWS V14.01,2013-01-30 12:20:00,
2013-01-30 07:25:00,49.2,49.2,29.15,SE,137,5.0,6.0,100,0.00,,,0.54,VWS V14.01,2013-01-30 12:25:00,
2013-01-30 07:30:00,49.1,49.1,29.10,SE,128,4.0,7.0,100,0.00,,,0.54,VWS V14.01,2013-01-30 12:30:00,
2013-01-30 07:35:00,48.9,48.9,29.10,SSE,161,0.0,8.0,100,0.00,,,0.54,VWS V14.01,2013-01-30 12:35:00,
2013-01-30 07:45:00,48.9,48.9,29.10,SE,131,0.0,7.0,100,0.00,,-RA,0.54,VWS V14.01,2013-01-30 12:45:00,
2013-01-30 07:50:00,48.9,48.9,29.10,SE,134,0.0,4.0,100,0.00,,-RA,0.54,VWS V14.01,2013-01-30 12:50:00,
2013-01-30 07:55:00,48.9,48.9,29.10,SE,141,3.0,6.0,100,0.00,,-RA,0.54,VWS V14.01,2013-01-30 12:55:00,
2013-01-30 08:05:00,48.9,48.9,29.10,South,174,4.0,6.0,100,0.00,,-RA,0.54,VWS V14.01,2013-01-30 13:05:00,
2013-01-30 08:15:00,48.9,48.9,29.12,South,186,5.0,6.0,100,0.00,,-RA,0.54,VWS V14.01,2013-01-30 13:15:00,
2013-01-30 08:20:00,48.8,48.8,29.12,SSW,205,6.0,7.0,100,0.00,,-RA,0.54,VWS V14.01,2013-01-30 13:20:00,
2013-01-30 08:25:00,48.8,48.8,29.12,SW,219,4.0,7.0,100,0.00,,-RA,0.54,VWS V14.01,2013-01-30 13:25:00,
2013-01-30 08:35:00,48.6,48.6,29.16,SW,232,7.0,10.0,100,0.00,,-RA,0.54,VWS V14.01,2013-01-30 13:35:00,
2013-01-30 08:45:00,48.5,48.5,29.14,SW,215,5.0,11.0,100,0.00,,,0.54,VWS V14.01,2013-01-30 13:45:00,
2013-01-30 08:50:00,48.3,48.3,29.14,SSW,208,8.0,11.0,100,0.00,,,0.54,VWS V14.01,2013-01-30 13:50:00,
2013-01-30 08:55:00,48.3,48.3,29.14,SSW,206,9.0,11.0,100,0.00,,,0.54,VWS V14.01,2013-01-30 13:55:00,
2013-01-30 09:00:00,48.3,48.3,29.17,SSW,196,7.0,14.0,100,0.00,,,0.54,VWS V14.01,2013-01-30 14:00:00,
2013-01-30 09:05:00,48.3,48.3,29.17,WSW,257,13.0,13.0,100,0.00,,,0.54,VWS V14.01,2013-01-30 14:05:00,
2013-01-30 09:10:00,48.5,48.5,29.17,SSW,208,7.0,17.0,100,0.00,,,0.54,VWS V14.01,2013-01-30 14:10:00,
2013-01-30 09:15:00,48.5,48.5,29.16,South,189,8.0,14.0,100,0.00,,,0.54,VWS V14.01,2013-01-30 14:15:00,
2013-01-30 09:20:00,48.5,48.5,29.16,SSW,199,10.0,12.0,100,0.00,,,0.54,VWS V14.01,2013-01-30 14:20:00,
2013-01-30 09:25:00,48.5,48.5,29.16,SSW,200,8.0,12.0,100,0.00,,,0.54,VWS V14.01,2013-01-30 14:25:00,
2013-01-30 09:30:00,48.5,48.5,29.16,South,178,7.0,11.0,100,0.00,,,0.54,VWS V14.01,2013-01-30 14:30:00,
2013-01-30 09:35:00,48.6,48.6,29.16,SSW,196,7.0,12.0,100,0.00,,,0.54,VWS V14.01,2013-01-30 14:35:00,
2013-01-30 09:40:00,48.6,48.6,29.16,South,191,6.0,11.0,100,0.00,,-RA,0.54,VWS V14.01,2013-01-30 14:40:00,
2013-01-30 09:45:00,48.6,48.6,29.16,SSW,213,9.0,11.0,100,0.00,,-RA,0.54,VWS V14.01,2013-01-30 14:45:00,
2013-01-30 09:50:00,48.8,48.8,29.16,South,184,5.0,17.0,100,0.00,,-RA,0.54,VWS V14.01,2013-01-30 14:50:00,
2013-01-30 09:55:00,48.8,48.8,29.16,SSW,192,3.0,10.0,100,0.00,,-RA,0.54,VWS V14.01,2013-01-30 14:55:00,
2013-01-30 10:00:00,48.8,48.8,29.15,SSE,151,5.0,11.0,100,0.00,,-RA,0.54,VWS V14.01,2013-01-30 15:00:00,
2013-01-30 10:10:00,48.9,48.9,29.15,SSE,167,3.0,11.0,100,0.00,,-RA,0.54,VWS V14.01,2013-01-30 15:10:00,
2013-01-30 10:15:00,49.1,49.1,29.13,South,184,4.0,9.0,100,0.00,,-RA,0.54,VWS V14.01,2013-01-30 15:15:00,
2013-01-30 10:20:00,49.1,49.1,29.13,South,188,6.0,13.0,100,0.00,,-RA,0.54,VWS V14.01,2013-01-30 15:20:00,
2013-01-30 10:25:00,49.2,49.2,29.13,South,185,10.0,11.0,100,0.00,,-RA,0.54,VWS V14.01,2013-01-30 15:25:00,
2013-01-30 10:30:00,49.2,48.9,29.13,SSW,200,10.0,14.0,99,0.00,,-RA,0.54,VWS V14.01,2013-01-30 15:30:00,
2013-01-30 10:36:00,49.2,48.9,29.13,SSW,200,8.0,12.0,99,0.00,,-RA,0.54,VWS V14.01,2013-01-30 15:36:00,
2013-01-30 10:45:00,49.2,48.9,29.13,SSW,208,9.0,13.0,99,0.00,,-RA,0.54,VWS V14.01,2013-01-30 15:45:00,
2013-01-30 10:50:00,49.2,48.9,29.13,South,186,6.0,13.0,99,0.00,,-RA,0.54,VWS V14.01,2013-01-30 15:50:00,
2013-01-30 10:55:00,49.2,48.9,29.13,SSE,157,6.0,12.0,99,0.00,,-RA,0.54,VWS V14.01,2013-01-30 15:55:00,
2013-01-30 11:05:00,49.4,48.9,29.12,SSW,203,10.0,12.0,98,0.00,,-RA,0.54,VWS V14.01,2013-01-30 16:05:00,
2013-01-30 11:10:00,49.2,48.7,29.12,SSW,203,12.0,14.0,98,0.00,,-RA,0.54,VWS V14.01,2013-01-30 16:10:00,
2013-01-30 11:16:00,49.4,48.9,29.11,SSW,205,8.0,12.0,98,0.00,,-RA,0.54,VWS V14.01,2013-01-30 16:16:00,
2013-01-30 11:21:00,49.4,48.6,29.11,SSW,202,11.0,14.0,97,0.00,,-RA,0.54,VWS V14.01,2013-01-30 16:21:00,
2013-01-30 11:31:00,49.4,48.6,29.12,South,176,12.0,17.0,97,0.00,,-RA,0.54,VWS V14.01,2013-01-30 16:31:00,
2013-01-30 11:40:00,49.4,48.6,29.12,SSW,195,10.0,16.0,97,0.00,,,0.54,VWS V14.01,2013-01-30 16:40:00,
2013-01-30 11:45:00,49.4,48.6,29.10,SSE,151,10.0,12.0,97,0.00,,,0.54,VWS V14.01,2013-01-30 16:45:00,
2013-01-30 11:50:00,49.4,48.6,29.10,SSW,208,8.0,16.0,97,0.00,,,0.54,VWS V14.01,2013-01-30 16:50:00,
2013-01-30 11:55:00,49.5,48.7,29.10,SSW,205,8.0,17.0,97,0.00,,,0.54,VWS V14.01,2013-01-30 16:55:00,
2013-01-30 12:00:00,49.5,48.7,29.10,SSW,199,7.0,15.0,97,0.00,,,0.54,VWS V14.01,2013-01-30 17:00:00,
2013-01-30 12:05:00,49.6,48.8,29.10,SSW,195,11.0,12.0,97,0.00,,,0.54,VWS V14.01,2013-01-30 17:05:00,
2013-01-30 12:10:00,49.6,48.8,29.10,SSW,205,11.0,14.0,97,0.00,,,0.54,VWS V14.01,2013-01-30 17:10:00,
2013-01-30 12:15:00,49.6,48.8,29.07,SSW,200,5.0,12.0,97,0.00,,,0.54,VWS V14.01,2013-01-30 17:15:00,
2013-01-30 12:20:00,49.6,48.8,29.07,SSW,208,10.0,13.0,97,0.00,,,0.54,VWS V14.01,2013-01-30 17:20:00,
2013-01-30 12:25:00,49.6,48.8,29.07,SSW,210,7.0,14.0,97,0.00,,,0.54,VWS V14.01,2013-01-30 17:25:00,
2013-01-30 12:30:00,49.8,49.0,29.08,SSW,200,10.0,16.0,97,0.00,,,0.54,VWS V14.01,2013-01-30 17:30:00,
2013-01-30 12:35:00,49.8,49.0,29.08,SSW,205,7.0,17.0,97,0.00,,,0.54,VWS V14.01,2013-01-30 17:35:00,
2013-01-30 12:40:00,49.9,49.1,29.08,SSW,203,7.0,13.0,97,0.00,,-RA,0.54,VWS V14.01,2013-01-30 17:40:00,
2013-01-30 12:45:00,49.9,48.8,29.07,South,189,6.0,14.0,96,0.00,,-RA,0.54,VWS V14.01,2013-01-30 17:45:00,
2013-01-30 12:50:00,49.9,48.8,29.07,SSW,202,9.0,13.0,96,0.00,,-RA,0.54,VWS V14.01,2013-01-30 17:50:00,
2013-01-30 12:55:00,49.8,48.7,29.07,South,179,5.0,11.0,96,0.00,,-RA,0.54,VWS V14.01,2013-01-30 17:55:00,
2013-01-30 13:00:00,49.8,48.7,29.07,South,179,6.0,14.0,96,0.00,,-RA,0.54,VWS V14.01,2013-01-30 18:00:00,
2013-01-30 13:05:00,49.8,48.7,29.07,SSW,199,5.0,12.0,96,0.00,,-RA,0.54,VWS V14.01,2013-01-30 18:05:00,
2013-01-30 13:10:00,49.8,48.7,29.07,South,188,6.0,17.0,96,0.00,,-RA,0.54,VWS V14.01,2013-01-30 18:10:00,
2013-01-30 13:15:00,49.8,48.4,29.09,SSW,195,7.0,17.0,95,0.00,,-RA,0.54,VWS V14.01,2013-01-30 18:15:00,
2013-01-30 13:20:00,49.8,48.4,29.09,SSW,199,11.0,18.0,95,0.00,,-RA,0.54,VWS V14.01,2013-01-30 18:20:00,
2013-01-30 13:25:00,49.8,48.4,29.09,South,186,11.0,17.0,95,0.00,,-RA,0.54,VWS V14.01,2013-01-30 18:25:00,
2013-01-30 13:35:00,50.1,48.4,29.07,SSW,200,11.0,15.0,94,0.00,,-RA,0.54,VWS V14.01,2013-01-30 18:35:00,
2013-01-30 13:40:00,50.2,48.3,29.07,South,182,2.0,13.0,93,0.00,,OVC022,0.54,VWS V14.01,2013-01-30 18:40:00,
2013-01-30 13:45:00,50.5,48.3,29.06,South,174,8.0,17.0,92,0.00,,OVC022,0.54,VWS V14.01,2013-01-30 18:45:00,
2013-01-30 13:55:00,50.8,48.0,29.06,SW,215,9.0,16.0,90,0.00,,OVC022,0.54,VWS V14.01,2013-01-30 18:55:00,
2013-01-30 14:01:00,51.1,48.0,29.03,SSW,192,12.0,14.0,89,0.00,,OVC022,0.54,VWS V14.01,2013-01-30 19:01:00,
2013-01-30 14:10:00,51.4,47.4,29.03,SW,217,5.0,17.0,86,0.00,,OVC022,0.54,VWS V14.01,2013-01-30 19:10:00,
2013-01-30 14:15:00,51.4,47.0,29.02,SSE,162,8.0,21.0,85,0.00,,OVC022,0.54,VWS V14.01,2013-01-30 19:15:00,
2013-01-30 14:20:00,51.3,47.0,29.02,SSW,209,14.0,19.0,85,0.01,,OVC022,0.55,VWS V14.01,2013-01-30 19:20:00,
2013-01-30 14:25:00,48.6,42.7,29.02,WSW,257,16.0,34.0,80,0.01,,OVC022,0.55,VWS V14.01,2013-01-30 19:25:00,
2013-01-30 14:30:00,47.3,42.1,29.04,WSW,258,17.0,28.0,82,0.01,,OVC022,0.55,VWS V14.01,2013-01-30 19:30:00,
2013-01-30 14:35:00,47.0,42.1,29.04,WSW,237,19.0,27.0,83,0.01,,OVC022,0.55,VWS V14.01,2013-01-30 19:35:00,
2013-01-30 14:40:00,46.7,41.5,29.04,West,260,22.0,32.0,82,0.01,,-RA,0.55,VWS V14.01,2013-01-30 19:40:00,
2013-01-30 14:45:00,46.1,40.9,29.05,SSW,213,24.0,25.0,82,0.01,,-RA,0.55,VWS V14.01,2013-01-30 19:45:00,
2013-01-30 14:50:00,45.7,40.5,29.05,West,263,18.0,28.0,82,0.01,,-RA,0.55,VWS V14.01,2013-01-30 19:50:00,
2013-01-30 14:55:00,45.4,40.5,29.05,SW,219,14.0,21.0,83,0.01,,-RA,0.55,VWS V14.01,2013-01-30 19:55:00,
2013-01-30 15:00:00,45.1,40.6,29.05,WSW,237,13.0,24.0,84,0.02,,-RA,0.56,VWS V14.01,2013-01-30 20:00:00,
2013-01-30 15:10:00,44.5,40.6,29.05,SW,216,11.0,24.0,86,0.02,,-RA,0.56,VWS V14.01,2013-01-30 20:10:00,
2013-01-30 15:20:00,43.8,39.9,29.06,SSW,203,12.0,25.0,86,0.03,,-RA,0.57,VWS V14.01,2013-01-30 20:20:00,
2013-01-30 15:25:00,42.9,39.3,29.06,SW,236,21.0,24.0,87,0.02,,-RA,0.57,VWS V14.01,2013-01-30 20:25:00,
2013-01-30 15:30:00,42.6,39.3,29.06,WSW,257,13.0,22.0,88,0.02,,-RA,0.57,VWS V14.01,2013-01-30 20:30:00,
2013-01-30 15:35:00,42.3,39.3,29.06,WSW,240,11.0,19.0,89,0.02,,-RA,0.57,VWS V14.01,2013-01-30 20:35:00,
2013-01-30 15:40:00,41.8,38.8,29.06,SW,216,24.0,26.0,89,0.02,,-RA,0.57,VWS V14.01,2013-01-30 20:40:00,
2013-01-30 15:45:00,41.1,37.8,29.06,SW,233,13.0,27.0,88,0.02,,-RA,0.57,VWS V14.01,2013-01-30 20:45:00,
2013-01-30 15:50:00,40.8,37.2,29.06,WSW,250,17.0,26.0,87,0.02,,-RA,0.57,VWS V14.01,2013-01-30 20:50:00,
2013-01-30 15:55:00,40.6,37.0,29.06,WSW,251,12.0,22.0,87,0.02,,-RA,0.57,VWS V14.01,2013-01-30 20:55:00,
2013-01-30 16:05:00,40.2,36.3,29.08,SW,229,18.0,28.0,86,0.01,,-RA,0.57,VWS V14.01,2013-01-30 21:05:00,
2013-01-30 16:10:00,39.9,35.8,29.08,SW,233,16.0,28.0,85,0.01,,-RA,0.57,VWS V14.01,2013-01-30 21:10:00,
2013-01-30 16:15:00,39.8,35.7,29.07,SW,227,13.0,31.0,85,0.01,,-RA,0.57,VWS V14.01,2013-01-30 21:15:00,
2013-01-30 16:20:00,39.5,35.1,29.07,SW,216,13.0,25.0,84,0.01,,-RA,0.57,VWS V14.01,2013-01-30 21:20:00,
2013-01-30 16:25:00,39.2,34.8,29.07,SW,234,14.0,34.0,84,0.00,,-RA,0.57,VWS V14.01,2013-01-30 21:25:00,
2013-01-30 16:30:00,38.8,34.1,29.10,SW,233,12.0,31.0,83,0.00,,-RA,0.57,VWS V14.01,2013-01-30 21:30:00,
2013-01-30 16:35:00,38.3,33.3,29.10,WSW,241,13.0,30.0,82,0.01,,-RA,0.58,VWS V14.01,2013-01-30 21:35:00,
2013-01-30 16:40:00,38.0,33.0,29.10,WSW,239,17.0,25.0,82,0.01,,OVC017,0.58,VWS V14.01,2013-01-30 21:40:00,
2013-01-30 16:45:00,37.9,32.9,29.09,SW,226,14.0,29.0,82,0.01,,OVC017,0.58,VWS V14.01,2013-01-30 21:45:00,
2013-01-30 16:50:00,37.8,33.1,29.09,SW,216,19.0,24.0,83,0.01,,OVC017,0.58,VWS V14.01,2013-01-30 21:50:00,
2013-01-30 16:55:00,37.8,32.8,29.09,SW,223,19.0,24.0,82,0.01,,OVC017,0.58,VWS V14.01,2013-01-30 21:55:00,
2013-01-30 17:00:00,37.8,32.8,29.10,WSW,239,11.0,27.0,82,0.01,,OVC017,0.58,VWS V14.01,2013-01-30 22:00:00,
2013-01-30 17:05:00,37.9,32.9,29.10,WSW,240,13.0,22.0,82,0.01,,OVC017,0.58,VWS V14.01,2013-01-30 22:05:00,
2013-01-30 17:10:00,37.8,32.8,29.10,SW,223,17.0,24.0,82,0.01,,OVC017,0.58,VWS V14.01,2013-01-30 22:10:00,
2013-01-30 17:15:00,37.8,32.8,29.10,SW,226,18.0,27.0,82,0.01,,OVC017,0.58,VWS V14.01,2013-01-30 22:15:00,
2013-01-30 17:20:00,37.6,32.9,29.10,West,278,17.0,21.0,83,0.01,,OVC017,0.58,VWS V14.01,2013-01-30 22:20:00,
2013-01-30 17:25:00,37.6,32.9,29.10,West,277,11.0,22.0,83,0.01,,OVC017,0.58,VWS V14.01,2013-01-30 22:25:00,
2013-01-30 17:30:00,37.6,32.9,29.10,SW,233,17.0,25.0,83,0.01,,OVC017,0.58,VWS V14.01,2013-01-30 22:30:00,
2013-01-30 17:35:00,37.3,32.9,29.10,SSE,148,14.0,24.0,84,0.01,,OVC017,0.58,VWS V14.01,2013-01-30 22:35:00,
2013-01-30 17:40:00,37.0,32.6,29.10,SW,217,18.0,27.0,84,0.00,,OVC016,0.58,VWS V14.01,2013-01-30 22:40:00,
2013-01-30 17:45:00,37.0,32.9,29.11,West,263,17.0,22.0,85,0.00,,OVC016,0.58,VWS V14.01,2013-01-30 22:45:00,
2013-01-30 17:50:00,36.8,32.4,29.11,SW,222,11.0,26.0,84,0.00,,OVC016,0.58,VWS V14.01,2013-01-30 22:50:00,
2013-01-30 17:55:00,36.5,31.8,29.11,SW,220,13.0,26.0,83,0.00,,OVC016,0.58,VWS V14.01,2013-01-30 22:55:00,
2013-01-30 18:05:00,36.9,31.9,29.10,SW,230,18.0,27.0,82,0.00,,OVC016,0.58,VWS V14.01,2013-01-30 23:05:00,
2013-01-30 18:10:00,36.9,31.9,29.10,SW,227,19.0,27.0,82,0.00,,OVC016,0.58,VWS V14.01,2013-01-30 23:10:00,
2013-01-30 18:15:00,36.9,31.9,29.12,SSW,203,21.0,22.0,82,0.00,,OVC016,0.58,VWS V14.01,2013-01-30 23:15:00,
2013-01-30 18:20:00,36.8,31.8,29.12,South,186,15.0,29.0,82,0.00,,OVC016,0.58,VWS V14.01,2013-01-30 23:20:00,
2013-01-30 18:25:00,36.6,31.6,29.12,WSW,257,22.0,28.0,82,0.00,,OVC016,0.58,VWS V14.01,2013-01-30 23:25:00,
2013-01-30 18:30:00,36.6,31.6,29.12,SSW,212,16.0,31.0,82,0.00,,OVC016,0.58,VWS V14.01,2013-01-30 23:30:00,
2013-01-30 18:35:00,35.9,31.5,29.12,SW,220,25.0,28.0,84,0.00,,OVC016,0.58,VWS V14.01,2013-01-30 23:35:00,
2013-01-30 18:40:00,35.5,31.5,29.12,SW,232,27.0,31.0,85,0.00,,-RA,0.58,VWS V14.01,2013-01-30 23:40:00,
2013-01-30 18:45:00,35.3,31.2,29.13,SW,226,27.0,31.0,85,0.00,,-RA,0.58,VWS V14.01,2013-01-30 23:45:00,
2013-01-30 18:50:00,35.3,31.2,29.13,SW,222,25.0,30.0,85,0.00,,-RA,0.58,VWS V14.01,2013-01-30 23:50:00,
2013-01-30 18:55:00,35.3,31.2,29.13,SSE,161,13.0,31.0,85,0.00,,-RA,0.58,VWS V14.01,2013-01-30 23:55:00,
2013-01-30 19:01:00,35.2,31.4,29.14,SW,222,25.0,25.0,86,0.00,,-RA,0.58,VWS V14.01,2013-01-31 00:01:00,
2013-01-30 19:10:00,34.7,31.0,29.14,SSW,205,18.0,32.0,86,0.00,,-RA,0.58,VWS V14.01,2013-01-31 00:10:00,
2013-01-30 19:15:00,34.6,30.9,29.17,SW,227,11.0,29.0,86,0.00,,-RA,0.58,VWS V14.01,2013-01-31 00:15:00,
2013-01-30 19:20:00,32.7,29.3,29.17,West,270,13.0,28.0,87,0.00,,-RA,0.58,VWS V14.01,2013-01-31 00:20:00,
2013-01-30 19:25:00,31.8,28.9,29.17,NW,304,12.0,28.0,89,0.00,,-RA,0.58,VWS V14.01,2013-01-31 00:25:00,
2013-01-30 19:30:00,31.5,28.6,29.18,NNW,337,14.0,25.0,89,0.00,,-RA,0.58,VWS V14.01,2013-01-31 00:30:00,
2013-01-30 19:35:00,31.5,28.6,29.18,West,261,16.0,20.0,89,0.00,,-RA,0.58,VWS V14.01,2013-01-31 00:35:00,
2013-01-30 19:40:00,31.3,28.4,29.18,NW,305,17.0,22.0,89,0.00,,,0.58,VWS V14.01,2013-01-31 00:40:00,
2013-01-30 19:45:00,31.3,28.2,29.20,West,270,19.0,21.0,88,0.00,,,0.58,VWS V14.01,2013-01-31 00:45:00,
2013-01-30 19:50:00,31.0,27.9,29.20,WNW,296,18.0,22.0,88,0.00,,,0.58,VWS V14.01,2013-01-31 00:50:00,
2013-01-30 19:55:00,31.0,27.9,29.20,NNW,329,14.0,20.0,88,0.00,,,0.58,VWS V14.01,2013-01-31 00:55:00,
2013-01-30 20:00:00,31.0,27.6,29.20,West,264,11.0,20.0,87,0.00,,,0.58,VWS V14.01,2013-01-31 01:00:00,
2013-01-30 20:05:00,31.0,27.9,29.20,NW,326,12.0,19.0,88,0.00,,,0.58,VWS V14.01,2013-01-31 01:05:00,
2013-01-30 20:10:00,30.9,27.5,29.20,NW,309,21.0,21.0,87,0.00,,,0.58,VWS V14.01,2013-01-31 01:10:00,
2013-01-30 20:15:00,30.7,27.3,29.21,WSW,247,8.0,25.0,87,0.00,,,0.58,VWS V14.01,2013-01-31 01:15:00,
2013-01-30 20:25:00,30.3,26.9,29.21,West,265,14.0,31.0,87,0.00,,,0.58,VWS V14.01,2013-01-31 01:25:00,
2013-01-30 20:30:00,30.1,26.7,29.22,West,272,12.0,25.0,87,0.00,,,0.58,VWS V14.01,2013-01-31 01:30:00,
2013-01-30 20:40:00,30.3,26.9,29.22,West,274,10.0,17.0,87,0.00,,,0.58,VWS V14.01,2013-01-31 01:40:00,
2013-01-30 20:50:00,30.3,26.6,29.23,West,272,24.0,24.0,86,0.00,,,0.58,VWS V14.01,2013-01-31 01:50:00,
2013-01-30 20:55:00,30.3,26.6,29.23,NW,311,12.0,25.0,86,0.00,,,0.58,VWS V14.01,2013-01-31 01:55:00,
2013-01-30 21:05:00,30.1,25.9,29.23,NW,308,11.0,26.0,84,0.00,,,0.58,VWS V14.01,2013-01-31 02:05:00,
2013-01-30 21:10:00,30.1,25.6,29.23,West,270,21.0,29.0,83,0.00,,,0.58,VWS V14.01,2013-01-31 02:10:00,
2013-01-30 21:15:00,30.1,25.6,29.24,WNW,282,6.0,21.0,83,0.00,,,0.58,VWS V14.01,2013-01-31 02:15:00,
2013-01-30 21:20:00,30.0,25.5,29.24,West,261,8.0,19.0,83,0.00,,,0.58,VWS V14.01,2013-01-31 02:20:00,
2013-01-30 21:25:00,29.8,25.0,29.24,NW,320,12.0,20.0,82,0.00,,,0.58,VWS V14.01,2013-01-31 02:25:00,
2013-01-30 21:30:00,29.8,25.0,29.25,NW,304,12.0,21.0,82,0.00,,,0.58,VWS V14.01,2013-01-31 02:30:00,
2013-01-30 21:40:00,29.7,24.9,29.25,NNW,337,12.0,21.0,82,0.00,,,0.58,VWS V14.01,2013-01-31 02:40:00,
2013-01-30 21:45:00,29.7,24.9,29.26,NW,305,9.0,18.0,82,0.00,,,0.58,VWS V14.01,2013-01-31 02:45:00,
2013-01-30 21:50:00,29.5,24.4,29.26,NW,308,16.0,24.0,81,0.00,,,0.58,VWS V14.01,2013-01-31 02:50:00,
2013-01-30 21:55:00,29.5,23.8,29.26,WNW,299,18.0,25.0,79,0.00,,,0.58,VWS V14.01,2013-01-31 02:55:00,
2013-01-30 22:00:00,29.4,23.7,29.28,WSW,258,14.0,19.0,79,0.00,,,0.58,VWS V14.01,2013-01-31 03:00:00,
2013-01-30 22:05:00,29.3,23.6,29.28,NW,306,13.0,19.0,79,0.00,,,0.58,VWS V14.01,2013-01-31 03:05:00,
2013-01-30 22:10:00,29.3,23.3,29.28,West,272,12.0,22.0,78,0.00,,,0.58,VWS V14.01,2013-01-31 03:10:00,
2013-01-30 22:15:00,29.1,23.4,29.28,NW,323,11.0,13.0,79,0.00,,,0.58,VWS V14.01,2013-01-31 03:15:00,
2013-01-30 22:20:00,29.0,23.9,29.28,West,281,16.0,19.0,81,0.00,,,0.58,VWS V14.01,2013-01-31 03:20:00,
2013-01-30 22:25:00,29.0,24.2,29.28,WNW,284,9.0,18.0,82,0.00,,,0.58,VWS V14.01,2013-01-31 03:25:00,
2013-01-30 22:30:00,29.0,24.2,29.29,West,275,19.0,19.0,82,0.00,,,0.58,VWS V14.01,2013-01-31 03:30:00,
2013-01-30 22:40:00,28.5,24.3,29.29,WNW,292,17.0,29.0,84,0.00,,,0.58,VWS V14.01,2013-01-31 03:40:00,
2013-01-30 22:45:00,28.2,24.3,29.30,WNW,289,22.0,30.0,85,0.00,,,0.58,VWS V14.01,2013-01-31 03:45:00,
2013-01-30 22:50:00,28.1,24.2,29.30,West,277,12.0,24.0,85,0.00,,,0.58,VWS V14.01,2013-01-31 03:50:00,
2013-01-30 22:55:00,27.9,24.3,29.30,West,265,14.0,21.0,86,0.00,,,0.58,VWS V14.01,2013-01-31 03:55:00,
2013-01-30 23:00:00,27.9,24.3,29.31,WSW,241,10.0,25.0,86,0.00,,,0.58,VWS V14.01,2013-01-31 04:00:00,
2013-01-30 23:10:00,27.6,24.0,29.31,West,267,19.0,30.0,86,0.00,,,0.58,VWS V14.01,2013-01-31 04:10:00,
2013-01-30 23:15:00,27.3,22.8,29.33,WSW,254,22.0,33.0,83,0.00,,,0.58,VWS V14.01,2013-01-31 04:15:00,
2013-01-30 23:20:00,27.2,22.4,29.33,WSW,248,16.0,32.0,82,0.00,,,0.58,VWS V14.01,2013-01-31 04:20:00,
2013-01-30 23:30:00,26.6,21.3,29.35,West,270,20.0,36.0,80,0.00,,,0.58,VWS V14.01,2013-01-31 04:30:00,
2013-01-30 23:35:00,26.3,20.7,29.35,WNW,299,26.0,30.0,79,0.00,,,0.58,VWS V14.01,2013-01-31 04:35:00,
2013-01-30 23:40:00,26.3,20.7,29.35,West,260,24.0,31.0,79,0.00,,,0.58,VWS V14.01,2013-01-31 04:40:00,
2013-01-30 23:45:00,26.1,20.2,29.36,WSW,247,27.0,30.0,78,0.00,,,0.58,VWS V14.01,2013-01-31 04:45:00,
2013-01-30 23:50:00,26.1,19.9,29.36,West,274,17.0,31.0,77,0.00,,,0.58,VWS V14.01,2013-01-31 04:50:00,
2013-01-30 23:55:00,26.0,19.5,29.36,West,261,21.0,30.0,76,0.00,,,0.58,VWS V14.01,2013-01-31 04:55:00,